createdAt,value
2019-02-28T00:00:11.255Z,98695.84
2019-02-28T00:02:39.557Z,98695.29
2019-02-28T00:05:07.950Z,98694.31
2019-02-28T00:07:36.323Z,98692.01
2019-02-28T00:10:07.374Z,98690.01
2019-02-28T00:12:35.666Z,98694.84
2019-02-28T00:15:06.333Z,98695.52
2019-02-28T00:17:34.905Z,98688.75
2019-02-28T00:20:03.393Z,98687.23
2019-02-28T00:22:31.709Z,98685.83
2019-02-28T00:25:01.132Z,98680.72
2019-02-28T00:27:30.067Z,98678.28
2019-02-28T00:29:58.362Z,98674.77
2019-02-28T00:32:26.776Z,98672.11
2019-02-28T00:34:55.075Z,98681.94
2019-02-28T00:37:24.692Z,98672.75
2019-02-28T00:39:53.425Z,98676.57
2019-02-28T00:42:21.729Z,98673.97
2019-02-28T00:44:50.050Z,98672.61
2019-02-28T00:47:18.705Z,98670.02
2019-02-28T00:49:47.050Z,98671.52
2019-02-28T00:52:15.363Z,98667.94
2019-02-28T00:54:44.540Z,98665.05
2019-02-28T00:57:13.070Z,98668.08
2019-02-28T00:59:41.371Z,98663.24
2019-02-28T01:02:11.145Z,98655.33
2019-02-28T01:04:39.522Z,98638.23
2019-02-28T01:07:07.844Z,98631.67
2019-02-28T01:09:36.288Z,98622.44
2019-02-28T01:12:04.683Z,98616.81
2019-02-28T01:14:35.806Z,98625.55
2019-02-28T01:17:03.031Z,98618.52
2019-02-28T01:19:31.332Z,98616.65
2019-02-28T01:21:59.634Z,98614.13
2019-02-28T01:24:27.960Z,98607.09
2019-02-28T01:26:56.255Z,98606.28
2019-02-28T01:29:24.578Z,98591.57
2019-02-28T01:31:52.879Z,98598.94
2019-02-28T01:34:21.269Z,98588.57
2019-02-28T01:36:49.710Z,98589.78
2019-02-28T01:39:18.003Z,98597.05
2019-02-28T01:41:46.315Z,98589.05
2019-02-28T01:44:14.768Z,98593.55
2019-02-28T01:46:43.089Z,98596.26
2019-02-28T01:49:11.394Z,98590.45
2019-02-28T01:51:39.791Z,98590.45
2019-02-28T01:54:08.102Z,98589.91
2019-02-28T01:56:36.964Z,98584.40
2019-02-28T01:59:06.324Z,98589.55
2019-02-28T02:01:34.624Z,98582.44
2019-02-28T02:04:02.949Z,98581.61
2019-02-28T02:06:31.253Z,98583.03
2019-02-28T02:08:59.586Z,98580.94
2019-02-28T02:11:27.887Z,98578.55
2019-02-28T02:13:56.193Z,98577.69
2019-02-28T02:16:27.665Z,98574.41
2019-02-28T02:18:54.617Z,98570.65
2019-02-28T02:21:23.255Z,98558.08
2019-02-28T02:23:52.952Z,98560.09
2019-02-28T02:26:21.587Z,98556.28
2019-02-28T02:28:49.919Z,98548.28
2019-02-28T02:31:18.646Z,98555.19
2019-02-28T02:33:52.429Z,98553.95
2019-02-28T02:36:17.755Z,98543.33
2019-02-28T02:38:46.427Z,98547.14
2019-02-28T02:41:14.726Z,98542.19
2019-02-28T02:43:43.066Z,98541.84
2019-02-28T02:46:19.824Z,98539.39
2019-02-28T02:48:42.282Z,98540.86
2019-02-28T02:51:12.629Z,98539.24
2019-02-28T02:53:42.125Z,98534.34
2019-02-28T02:56:11.150Z,98529.77
2019-02-28T02:58:39.837Z,98525.19
2019-02-28T03:01:08.158Z,98506.56
2019-02-28T03:03:42.999Z,98525.25
2019-02-28T03:06:12.145Z,98514.86
2019-02-28T03:08:37.468Z,98515.58
2019-02-28T03:11:05.930Z,98511.12
2019-02-28T03:13:41.938Z,98507.66
2019-02-28T03:16:04.275Z,98506.02
2019-02-28T03:18:32.624Z,98504.91
2019-02-28T03:21:00.942Z,98502.87
2019-02-28T03:23:29.254Z,98494.75
2019-02-28T03:26:05.721Z,98497.38
2019-02-28T03:28:28.229Z,98488.78
2019-02-28T03:30:58.315Z,98490.45
2019-02-28T03:33:28.743Z,98487.01
2019-02-28T03:35:56.653Z,98482.02
2019-02-28T03:38:24.953Z,98478.23
2019-02-28T03:40:53.584Z,98468.03
2019-02-28T03:43:21.955Z,98468.03
2019-02-28T03:45:50.262Z,98470.97
2019-02-28T03:48:18.583Z,98473.36
2019-02-28T03:50:46.878Z,98471.64
2019-02-28T03:53:19.635Z,98472.02
2019-02-28T03:55:45.510Z,98475.28
2019-02-28T03:58:13.897Z,98466.11
2019-02-28T04:00:42.347Z,98472.14
2019-02-28T04:03:11.067Z,98474.17
2019-02-28T04:05:39.439Z,98467.09
2019-02-28T04:08:07.772Z,98461.57
2019-02-28T04:10:36.079Z,98457.88
2019-02-28T04:13:04.904Z,98463.59
2019-02-28T04:15:33.485Z,98454.48
2019-02-28T04:18:06.689Z,98452.37
2019-02-28T04:20:36.376Z,98453.61
2019-02-28T04:23:02.243Z,98455.46
2019-02-28T04:25:30.552Z,98446.13
2019-02-28T04:27:58.886Z,98446.19
2019-02-28T04:30:27.254Z,98433.73
2019-02-28T04:33:01.093Z,98432.94
2019-02-28T04:35:25.995Z,98431.58
2019-02-28T04:37:54.340Z,98428.33
2019-02-28T04:40:24.036Z,98434.41
2019-02-28T04:42:52.669Z,98429.99
2019-02-28T04:45:23.350Z,98425.08
2019-02-28T04:47:51.022Z,98431.89
2019-02-28T04:50:19.336Z,98429.07
2019-02-28T04:52:48.294Z,98427.30
2019-02-28T04:55:16.771Z,98421.41
2019-02-28T04:57:45.395Z,98420.28
2019-02-28T05:00:16.310Z,98416.00
2019-02-28T05:02:44.636Z,98416.27
2019-02-28T05:05:13.791Z,98417.50
2019-02-28T05:07:42.125Z,98411.68
2019-02-28T05:10:11.787Z,98416.77
2019-02-28T05:12:41.061Z,98412.67
2019-02-28T05:15:11.601Z,98413.96
2019-02-28T05:17:40.417Z,98404.06
2019-02-28T05:20:11.924Z,98388.84
2019-02-28T05:22:41.171Z,98409.42
2019-02-28T05:25:10.687Z,98317.39
2019-02-28T05:27:39.075Z,98399.87
2019-02-28T05:30:17.898Z,98395.02
2019-02-28T05:32:43.036Z,98397.42
2019-02-28T05:35:11.407Z,98400.56
2019-02-28T05:37:39.744Z,98398.30
2019-02-28T05:40:17.320Z,98393.64
2019-02-28T05:42:45.646Z,98396.27
2019-02-28T05:45:14.940Z,98391.66
2019-02-28T05:47:46.712Z,98384.61
2019-02-28T05:50:16.611Z,98382.71
2019-02-28T05:52:44.428Z,98386.06
2019-02-28T05:55:12.749Z,98381.34
2019-02-28T05:57:43.382Z,98374.91
2019-02-28T06:00:14.811Z,98383.11
2019-02-28T06:02:43.461Z,98373.17
2019-02-28T06:05:12.798Z,98380.11
2019-02-28T06:07:41.233Z,98377.91
2019-02-28T06:10:11.696Z,98382.93
2019-02-28T06:12:43.751Z,98383.22
2019-02-28T06:15:12.428Z,98384.52
2019-02-28T06:17:40.758Z,98389.59
2019-02-28T06:20:11.003Z,98387.30
2019-02-28T06:22:39.399Z,98382.77
2019-02-28T06:25:09.651Z,98379.55
2019-02-28T06:27:41.687Z,98370.80
2019-02-28T06:30:11.009Z,98376.09
2019-02-28T06:32:39.312Z,98376.99
2019-02-28T06:35:07.705Z,98380.04
2019-02-28T06:37:38.285Z,98378.44
2019-02-28T06:40:09.229Z,98382.58
2019-02-28T06:42:37.539Z,98372.02
2019-02-28T06:45:09.270Z,98372.34
2019-02-28T06:47:39.029Z,98374.11
2019-02-28T06:50:12.948Z,98371.87
2019-02-28T06:52:40.764Z,98374.38
2019-02-28T06:55:13.267Z,98372.67
2019-02-28T06:57:41.814Z,98376.97
2019-02-28T07:00:15.819Z,98373.17
2019-02-28T07:02:44.165Z,98384.76
2019-02-28T07:05:12.535Z,98378.73
2019-02-28T07:07:40.931Z,98377.84
2019-02-28T07:10:19.910Z,98366.72
2019-02-28T07:12:48.209Z,98371.19
2019-02-28T07:15:16.530Z,98368.41
2019-02-28T07:17:46.643Z,98371.42
2019-02-28T07:20:18.881Z,98368.42
2019-02-28T07:22:47.184Z,98370.84
2019-02-28T07:25:15.573Z,98365.94
2019-02-28T07:27:43.880Z,98359.91
2019-02-28T07:30:18.558Z,98360.73
2019-02-28T07:32:44.733Z,98357.59
2019-02-28T07:35:13.145Z,98360.33
2019-02-28T07:37:41.514Z,98354.11
2019-02-28T07:40:15.709Z,98344.95
2019-02-28T07:42:42.411Z,98341.20
2019-02-28T07:45:12.850Z,98336.02
2019-02-28T07:47:41.165Z,98334.98
2019-02-28T07:50:11.903Z,98340.23
2019-02-28T07:52:40.194Z,98338.39
2019-02-28T07:55:14.293Z,98335.27
2019-02-28T07:57:42.677Z,98335.84
2019-02-28T08:00:18.248Z,98329.40
2019-02-28T08:02:44.193Z,98318.91
2019-02-28T08:05:14.145Z,98316.62
2019-02-28T08:07:42.708Z,98314.88
2019-02-28T08:10:16.849Z,98314.52
2019-02-28T08:12:45.244Z,98307.04
2019-02-28T08:15:22.320Z,98314.94
2019-02-28T08:17:49.217Z,98305.42
2019-02-28T08:20:17.993Z,98308.67
2019-02-28T08:22:46.297Z,98309.29
2019-02-28T08:25:15.836Z,98306.20
2019-02-28T08:27:44.529Z,98309.03
2019-02-28T08:30:19.515Z,98299.90
2019-02-28T08:32:48.634Z,98299.92
2019-02-28T08:35:16.999Z,98295.17
2019-02-28T08:37:45.374Z,98287.14
2019-02-28T08:40:16.630Z,98290.34
2019-02-28T08:42:44.938Z,98285.98
2019-02-28T08:45:15.195Z,98291.72
2019-02-28T08:47:43.553Z,98287.28
2019-02-28T08:50:19.127Z,98284.27
2019-02-28T08:52:45.225Z,98278.91
2019-02-28T08:55:15.732Z,98278.67
2019-02-28T08:57:44.043Z,98274.41
2019-02-28T09:00:18.161Z,98271.56
2019-02-28T09:02:52.453Z,98266.14
2019-02-28T09:05:17.131Z,98264.80
2019-02-28T09:07:50.814Z,98258.00
2019-02-28T09:10:21.439Z,98263.69
2019-02-28T09:12:49.917Z,98256.00
2019-02-28T09:15:19.304Z,98256.73
2019-02-28T09:17:47.666Z,98135.84
2019-02-28T09:20:16.721Z,98246.91
2019-02-28T09:22:45.085Z,98249.52
2019-02-28T09:25:22.165Z,98251.42
2019-02-28T09:27:49.335Z,98244.85
2019-02-28T09:30:20.772Z,98235.42
2019-02-28T09:32:49.093Z,98238.43
2019-02-28T09:35:17.723Z,98229.45
2019-02-28T09:37:46.112Z,98227.62
2019-02-28T09:40:16.094Z,98234.16
2019-02-28T09:42:44.616Z,98231.42
2019-02-28T09:45:21.179Z,98238.54
2019-02-28T09:47:49.776Z,98231.89
2019-02-28T09:50:22.452Z,98231.74
2019-02-28T09:52:50.502Z,98216.86
2019-02-28T09:55:18.964Z,98209.67
2019-02-28T09:57:53.765Z,98211.47
2019-02-28T10:00:27.527Z,98205.57
2019-02-28T10:02:55.732Z,98200.48
2019-02-28T10:05:24.124Z,98192.31
2019-02-28T10:07:52.488Z,98212.64
2019-02-28T10:10:25.896Z,98192.75
2019-02-28T10:12:54.258Z,98202.16
2019-02-28T10:15:23.593Z,98190.64
2019-02-28T10:17:52.046Z,98175.72
2019-02-28T10:20:27.085Z,98185.73
2019-02-28T10:22:56.231Z,98189.52
2019-02-28T10:25:24.675Z,98198.62
2019-02-28T10:27:54.519Z,98183.81
2019-02-28T10:30:31.716Z,98195.50
2019-02-28T10:32:54.996Z,98167.83
2019-02-28T10:35:23.384Z,98167.92
2019-02-28T10:37:57.350Z,98190.23
2019-02-28T10:40:24.602Z,98162.31
2019-02-28T10:42:52.906Z,98171.14
2019-02-28T10:45:22.269Z,98203.41
2019-02-28T10:47:51.491Z,98182.67
2019-02-28T10:50:26.055Z,98161.30
2019-02-28T10:52:54.341Z,98155.15
2019-02-28T10:55:23.364Z,98169.72
2019-02-28T10:57:52.079Z,98155.23
2019-02-28T11:00:32.757Z,98146.78
2019-02-28T11:03:01.956Z,98163.65
2019-02-28T11:05:32.656Z,98148.88
2019-02-28T11:08:01.598Z,98144.00
2019-02-28T11:10:36.328Z,98161.42
2019-02-28T11:13:06.718Z,98150.16
2019-02-28T11:15:35.092Z,98145.40
2019-02-28T11:18:08.571Z,98147.72
2019-02-28T11:20:33.569Z,98131.02
2019-02-28T11:23:02.326Z,98134.87
2019-02-28T11:25:34.671Z,98140.28
2019-02-28T11:28:00.871Z,98125.93
2019-02-28T11:30:30.630Z,98125.77
2019-02-28T11:33:03.245Z,98118.73
2019-02-28T11:35:30.031Z,98132.66
2019-02-28T11:37:58.401Z,98119.23
2019-02-28T11:40:29.318Z,98120.16
2019-02-28T11:42:59.454Z,98122.72
2019-02-28T11:45:34.393Z,98123.89
2019-02-28T11:48:05.548Z,98118.56
2019-02-28T11:50:33.852Z,98111.30
2019-02-28T11:53:05.760Z,98106.83
2019-02-28T11:55:32.192Z,98115.61
2019-02-28T11:58:00.967Z,98108.98
2019-02-28T12:00:32.515Z,98121.42
2019-02-28T12:03:01.858Z,98096.77
2019-02-28T12:05:30.255Z,98093.56
2019-02-28T12:07:58.620Z,98103.08
2019-02-28T12:10:27.896Z,98079.72
2019-02-28T12:12:56.490Z,98074.10
2019-02-28T12:15:33.457Z,98064.59
2019-02-28T12:18:04.745Z,98061.55
2019-02-28T12:20:31.879Z,98069.76
2019-02-28T12:23:00.201Z,98046.38
2019-02-28T12:25:28.928Z,98070.27
2019-02-28T12:27:59.293Z,98056.46
2019-02-28T12:30:30.084Z,98058.03
2019-02-28T12:32:58.405Z,98058.28
2019-02-28T12:35:26.841Z,98036.47
2019-02-28T12:37:55.210Z,98029.44
2019-02-28T12:40:29.873Z,98039.17
2019-02-28T12:42:58.595Z,98032.63
2019-02-28T12:45:32.473Z,98022.93
2019-02-28T12:48:00.844Z,98016.28
2019-02-28T12:50:30.355Z,98015.89
2019-02-28T12:53:00.979Z,98024.91
2019-02-28T12:55:29.045Z,98023.18
2019-02-28T12:57:57.720Z,98009.23
2019-02-28T13:00:36.274Z,98021.38
2019-02-28T13:03:04.736Z,98000.88
2019-02-28T13:05:33.350Z,98000.61
2019-02-28T13:08:01.729Z,98048.42
2019-02-28T13:10:31.135Z,98011.54
2019-02-28T13:13:06.231Z,97981.95
2019-02-28T13:15:29.943Z,97986.25
2019-02-28T13:17:58.322Z,97972.39
2019-02-28T13:20:33.734Z,97990.25
2019-02-28T13:23:01.217Z,97992.22
2019-02-28T13:25:29.738Z,97982.44
2019-02-28T13:27:58.107Z,97980.80
2019-02-28T13:30:27.648Z,97961.66
2019-02-28T13:32:56.300Z,97958.14
2019-02-28T13:35:36.658Z,97951.13
2019-02-28T13:38:05.149Z,97976.25
2019-02-28T13:40:33.835Z,97969.42
2019-02-28T13:43:02.212Z,97972.08
2019-02-28T13:45:30.551Z,97959.61
2019-02-28T13:47:58.849Z,97967.84
2019-02-28T13:50:35.354Z,97970.59
2019-02-28T13:53:16.936Z,97964.76
2019-02-28T13:55:34.626Z,97955.88
2019-02-28T13:58:02.979Z,97956.88
2019-02-28T14:00:35.733Z,97932.61
2019-02-28T14:03:11.628Z,97951.94
2019-02-28T14:05:41.418Z,97930.44
2019-02-28T14:08:11.805Z,97947.94
2019-02-28T14:10:40.280Z,97948.45
2019-02-28T14:13:08.772Z,97958.61
2019-02-28T14:15:48.088Z,97966.78
2019-02-28T14:18:15.403Z,97941.91
2019-02-28T14:20:44.534Z,97961.12
2019-02-28T14:23:12.912Z,97946.35
2019-02-28T14:25:41.410Z,97948.70
2019-02-28T14:28:09.987Z,97942.27
2019-02-28T14:30:38.637Z,97923.70
2019-02-28T14:33:07.481Z,97943.08
2019-02-28T14:35:38.453Z,97947.28
2019-02-28T14:38:06.057Z,97948.27
2019-02-28T14:40:34.358Z,97930.12
2019-02-28T14:43:02.735Z,97924.57
2019-02-28T14:45:33.795Z,97933.89
2019-02-28T14:48:04.131Z,97936.33
2019-02-28T14:50:32.217Z,97916.47
2019-02-28T14:53:00.839Z,97929.95
2019-02-28T14:55:32.505Z,97908.27
2019-02-28T14:57:59.329Z,97916.62
2019-02-28T15:00:35.530Z,97940.33
2019-02-28T15:03:04.295Z,97912.04
2019-02-28T15:05:38.578Z,97929.95
2019-02-28T15:08:07.020Z,97920.06
2019-02-28T15:10:35.684Z,97909.47
2019-02-28T15:13:05.057Z,97905.87
2019-02-28T15:15:36.040Z,97910.66
2019-02-28T15:18:04.178Z,97892.14
2019-02-28T15:20:33.158Z,97908.59
2019-02-28T15:23:01.745Z,97903.70
2019-02-28T15:25:30.896Z,97908.31
2019-02-28T15:27:59.273Z,97919.78
2019-02-28T15:30:41.530Z,97894.23
2019-02-28T15:33:09.897Z,97892.32
2019-02-28T15:35:38.461Z,97898.02
2019-02-28T15:38:09.237Z,97884.94
2019-02-28T15:40:40.611Z,97879.66
2019-02-28T15:43:09.461Z,97890.71
2019-02-28T15:45:37.834Z,97877.02
2019-02-28T15:48:06.533Z,97878.36
2019-02-28T15:50:34.900Z,97882.81
2019-02-28T15:53:03.676Z,97876.05
2019-02-28T15:55:35.236Z,97877.95
2019-02-28T15:58:02.729Z,97878.19
2019-02-28T16:00:34.024Z,97875.14
2019-02-28T16:03:02.398Z,97873.19
2019-02-28T16:05:30.795Z,97864.97
2019-02-28T16:07:59.257Z,97871.37
2019-02-28T16:10:32.000Z,97879.84
2019-02-28T16:13:00.818Z,97873.80
2019-02-28T16:15:29.555Z,97875.47
2019-02-28T16:17:57.940Z,97884.48
2019-02-28T16:20:28.549Z,97875.50
2019-02-28T16:22:56.525Z,97869.99
2019-02-28T16:25:27.624Z,97884.33
2019-02-28T16:27:56.191Z,97871.67
2019-02-28T16:30:24.580Z,97870.06
2019-02-28T16:32:52.943Z,97874.45
2019-02-28T16:35:21.335Z,97885.53
2019-02-28T16:37:50.019Z,97882.05
2019-02-28T16:40:26.908Z,97873.23
2019-02-28T16:42:54.179Z,97883.19
2019-02-28T16:45:41.836Z,97898.70
2019-02-28T16:48:10.262Z,97889.72
2019-02-28T16:50:38.947Z,97890.27
2019-02-28T16:53:07.336Z,97892.16
2019-02-28T16:55:35.708Z,97893.73
2019-02-28T16:58:04.967Z,97892.92
2019-02-28T17:00:33.343Z,97911.66
2019-02-28T17:03:04.061Z,97911.31
2019-02-28T17:05:32.137Z,97916.66
2019-02-28T17:08:00.711Z,97913.29
2019-02-28T17:10:33.583Z,97921.72
2019-02-28T17:13:04.212Z,97928.41
2019-02-28T17:15:52.249Z,97930.22
2019-02-28T17:18:28.122Z,97930.94
2019-02-28T17:20:56.498Z,97939.08
2019-02-28T17:23:24.810Z,97937.70
2019-02-28T17:25:53.453Z,97951.91
2019-02-28T17:28:25.228Z,97941.38
2019-02-28T17:31:00.741Z,97945.91
2019-02-28T17:33:29.368Z,97954.03
2019-02-28T17:35:57.950Z,97949.92
2019-02-28T17:38:26.321Z,97954.47
2019-02-28T17:40:54.708Z,97953.82
2019-02-28T17:43:24.603Z,97955.75
2019-02-28T17:45:53.342Z,97959.21
2019-02-28T17:48:27.749Z,97957.50
2019-02-28T17:51:14.917Z,97949.05
2019-02-28T17:53:45.840Z,97951.55
2019-02-28T17:56:34.181Z,97954.83
2019-02-28T17:59:28.308Z,97946.53
2019-02-28T18:02:05.233Z,97955.20
2019-02-28T18:05:03.684Z,97949.92
2019-02-28T18:07:34.882Z,97956.23
2019-02-28T18:10:21.024Z,97955.20
2019-02-28T18:13:23.854Z,97953.06
2019-02-28T18:16:03.969Z,97962.78
2019-02-28T18:18:55.219Z,97963.75
2019-02-28T18:21:41.968Z,97975.08
2019-02-28T18:24:41.142Z,97972.81
2019-02-28T18:27:21.790Z,97971.55
2019-02-28T18:30:11.554Z,97972.07
2019-02-28T18:32:39.857Z,97977.14
2019-02-28T18:35:09.604Z,97980.63
2019-02-28T18:37:37.940Z,97977.97
2019-02-28T18:40:07.906Z,97972.62
2019-02-28T18:42:36.230Z,97982.70
2019-02-28T18:45:06.735Z,97983.09
2019-02-28T18:47:35.920Z,97982.73
2019-02-28T18:50:06.946Z,97981.34
2019-02-28T18:52:35.257Z,97973.16
2019-02-28T18:55:06.323Z,97973.16
2019-02-28T18:57:34.154Z,97983.35
2019-02-28T19:00:02.572Z,97978.66
2019-02-28T19:02:30.883Z,97980.97
2019-02-28T19:04:59.200Z,97982.20
2019-02-28T19:07:27.516Z,97991.27
2019-02-28T19:09:55.870Z,97987.03
2019-02-28T19:12:24.201Z,97984.80
2019-02-28T19:14:52.515Z,97984.48
2019-02-28T19:17:20.856Z,97986.10
2019-02-28T19:19:49.160Z,97981.70
2019-02-28T19:22:17.492Z,97985.62
2019-02-28T19:24:45.800Z,97993.29
2019-02-28T19:27:14.101Z,97993.69
2019-02-28T19:29:42.434Z,97991.09
2019-02-28T19:32:11.087Z,97997.37
2019-02-28T19:34:39.689Z,97991.58
2019-02-28T19:37:08.269Z,97987.80
2019-02-28T19:39:36.935Z,97994.80
2019-02-28T19:42:05.624Z,97986.98
2019-02-28T19:44:33.928Z,97984.53
2019-02-28T19:47:02.265Z,97975.26
2019-02-28T19:49:30.756Z,97987.17
2019-02-28T19:51:59.134Z,97984.53
2019-02-28T19:54:27.455Z,97987.76
2019-02-28T19:56:55.766Z,97991.75
2019-02-28T19:59:24.178Z,97989.22
2019-02-28T20:01:52.470Z,97985.48
2019-02-28T20:04:20.846Z,97999.19
2019-02-28T20:06:49.247Z,97997.88
2019-02-28T20:09:17.623Z,97992.49
2019-02-28T20:11:45.955Z,97988.02
2019-02-28T20:14:14.327Z,97992.92
2019-02-28T20:16:42.715Z,97988.71
2019-02-28T20:19:11.050Z,97989.14
2019-02-28T20:21:39.355Z,97988.16
2019-02-28T20:24:08.911Z,97992.70
2019-02-28T20:26:37.298Z,97988.22
2019-02-28T20:29:05.691Z,97974.44
2019-02-28T20:31:34.133Z,97973.98
2019-02-28T20:34:02.530Z,97978.08
2019-02-28T20:36:30.901Z,97973.84
2019-02-28T20:38:59.275Z,97969.91
2019-02-28T20:41:27.674Z,97983.67
2019-02-28T20:43:56.112Z,97980.74
2019-02-28T20:46:24.448Z,97978.72
2019-02-28T20:48:52.756Z,97967.47
2019-02-28T20:51:21.061Z,97972.30
2019-02-28T20:53:49.396Z,97978.64
2019-02-28T20:56:17.694Z,97980.66
2019-02-28T20:58:46.038Z,97982.22
2019-02-28T21:01:14.345Z,97990.50
2019-02-28T21:03:42.935Z,97982.59
2019-02-28T21:06:11.257Z,97987.80
2019-02-28T21:08:39.567Z,97985.06
2019-02-28T21:11:07.892Z,97984.92
2019-02-28T21:13:36.350Z,97974.97
2019-02-28T21:16:04.721Z,97987.27
2019-02-28T21:18:33.042Z,97990.44
2019-02-28T21:21:01.354Z,98002.20
2019-02-28T21:23:30.090Z,97997.63
2019-02-28T21:25:58.404Z,98002.08
2019-02-28T21:28:26.705Z,98001.52
2019-02-28T21:30:55.024Z,98007.98
2019-02-28T21:33:23.321Z,97996.95
2019-02-28T21:35:51.729Z,98005.08
2019-02-28T21:38:20.102Z,98002.91
2019-02-28T21:40:48.475Z,98005.33
2019-02-28T21:43:16.805Z,98009.09
2019-02-28T21:45:45.182Z,98014.97
2019-02-28T21:48:13.516Z,98011.33
2019-02-28T21:50:41.834Z,98011.57
2019-02-28T21:53:10.466Z,98014.92
2019-02-28T21:55:38.782Z,98016.99
2019-02-28T21:58:07.089Z,98012.67
2019-02-28T22:00:35.618Z,98012.30
2019-02-28T22:03:04.628Z,98023.08
2019-02-28T22:05:32.950Z,98011.02
2019-02-28T22:08:01.339Z,98013.63
2019-02-28T22:10:29.639Z,98014.92
2019-02-28T22:12:59.754Z,98009.91
2019-02-28T22:15:28.292Z,98003.66
2019-02-28T22:17:56.595Z,98007.64
2019-02-28T22:20:24.990Z,97999.61
2019-02-28T22:22:53.293Z,98007.41
2019-02-28T22:25:21.886Z,98007.27
2019-02-28T22:27:50.206Z,98001.88
2019-02-28T22:30:42.303Z,98006.16
2019-02-28T22:33:24.119Z,98002.58
2019-02-28T22:36:00.380Z,97998.80
2019-02-28T22:38:28.679Z,97996.71
2019-02-28T22:40:57.019Z,97996.97
2019-02-28T22:43:25.323Z,98001.73
2019-02-28T22:45:53.697Z,98001.56
2019-02-28T22:48:22.090Z,98007.34
2019-02-28T22:50:50.758Z,98018.47
2019-02-28T22:53:19.083Z,98015.82
2019-02-28T22:55:47.384Z,98025.61
2019-02-28T22:58:16.016Z,98023.98
2019-02-28T23:01:01.097Z,98018.91
2019-02-28T23:03:31.938Z,98022.77
2019-02-28T23:06:00.378Z,98023.55
2019-02-28T23:08:28.751Z,98021.73
2019-02-28T23:10:57.139Z,98030.43
2019-02-28T23:13:25.445Z,98015.92
2019-02-28T23:15:53.775Z,98017.14
2019-02-28T23:18:22.721Z,98026.66
2019-02-28T23:20:51.040Z,98032.69
2019-02-28T23:23:20.886Z,98031.59
2019-02-28T23:25:49.181Z,98035.41
2019-02-28T23:28:29.302Z,98037.45
2019-02-28T23:31:20.332Z,98036.50
2019-02-28T23:33:48.670Z,98045.19
2019-02-28T23:36:16.973Z,98046.00
2019-02-28T23:38:45.278Z,98038.37
2019-02-28T23:41:13.671Z,98062.52
2019-02-28T23:43:42.314Z,98060.66
2019-02-28T23:46:10.640Z,98072.39
2019-02-28T23:48:38.952Z,98074.84
2019-02-28T23:51:07.346Z,98077.77
2019-02-28T23:53:35.650Z,98077.77
2019-02-28T23:56:04.101Z,98086.28
2019-02-28T23:58:32.774Z,98074.42
